• Join FlightAware (Why Join?)
  • Login
  • US Flag 
11:26PM EDT


 

Airport Tracker/Info


-or-


 

Live Flight TrackerFlight Track Log ✈ N14UH ✈ 28-Apr-2012 ✈ 4MS6 - KGPT

Flight Track Log - Related Links

Times and Time Zones

All times are in EDT time to prevent confusion due to time zone crossing. See the N14UH flight status page for this flight to view local times or setup timezone preferences in your user account.

Time Position Orientation Groundspeed Altitude Reporting Facility
EDT Latitude Longitude Course Direction KTS MPH feet Rate Location/Type
06:52AM 32.2943 -90.1533 153° Southeast  Level FlightAware Approximate
06:53AM 32.2458 -90.1239 158° South 115 132 2,500  Level Memphis Center
06:54AM 32.2250 -90.1142 154° Southeast 103 119 3,500 900 Climbing Memphis Center
06:55AM 32.2039 -90.1019 151° Southeast 85 98 4,400 900 Climbing Memphis Center
06:56AM 32.1853 -90.0897 154° Southeast 85 98 5,400 900 Climbing Memphis Center
06:57AM 32.1642 -90.0775 156° South 85 98 6,300 780 Climbing Memphis Center
06:58AM 32.1414 -90.0653 154° Southeast 85 98 7,000 300 Climbing Memphis Center
06:59AM 32.1119 -90.0483 152° Southeast 97 112 7,000  Level Memphis Center
07:00AM 32.0847 -90.0311 154° Southeast 110 127 7,000  Level Memphis Center
07:01AM 32.0556 -90.0142 155° Southeast 115 132 7,000  Level Memphis Center
07:02AM 32.0242 -89.9972 154° Southeast 115 132 7,000  Level Memphis Center
07:03AM 31.9950 -89.9803 154° Southeast 115 132 7,000  Level Memphis Center
07:04AM 31.9656 -89.9631 152° Southeast 115 132 7,000  Level Memphis Center
07:05AM 31.9383 -89.9461 154° Southeast 115 132 7,000  Level Memphis Center
07:06AM 31.9092 -89.9292 154° Southeast 115 132 7,000  Level Memphis Center
07:07AM 31.8800 -89.9122 156° South 110 127 7,000  Level Memphis Center
07:09AM 31.8075 -89.8736 156° South 128 147 7,000  Level Houston Center
07:10AM 31.7761 -89.8569 150° Southeast 128 147 7,000  Level Houston Center
07:11AM 31.7486 -89.8381 158° South 128 147 7,000  Level Houston Center
07:12AM 31.7194 -89.8239 153° Southeast 128 147 7,000  Level Houston Center
07:13AM 31.6878 -89.8050 152° Southeast 128 147 7,000  Level Houston Center
07:14AM 31.6606 -89.7883 151° Southeast 128 147 7,000  Level Houston Center
07:15AM 31.6311 -89.7694 155° Southeast 128 147 7,000  Level Houston Center
07:16AM 31.6017 -89.7531 152° Southeast 128 147 7,000  Level Houston Center
07:17AM 31.5719 -89.7342 158° South 128 147 7,000  Level Houston Center
07:18AM 31.5428 -89.7200 156° South 128 147 7,000  Level Houston Center
07:19AM 31.5111 -89.7036 149° Southeast 128 147 7,000  Level Houston Center
07:20AM 31.4839 -89.6847 158° South 123 142 7,000  Level Houston Center
07:21AM 31.4544 -89.6708 156° South 118 136 7,000  Level Houston Center
07:22AM 31.4228 -89.6544 154° Southeast 118 136 7,000  Level Houston Center
07:23AM 31.3933 -89.6378 155° Southeast 118 136 7,000  Level Houston Center
07:24AM 31.3639 -89.6214 151° Southeast 113 130 7,000  Level Houston Center
07:25AM 31.3344 -89.6025 151° Southeast 113 130 7,000  Level Houston Center